Crystal City, Canada
Current Conditions -  °F | °C
As of 5:15 AM on Wednesday 26 Nov 2014 (Local Time) from K06D Reporting Station
Light Snow Light Snow  
Wind Chill: -21°   Ceiling: 4100
Heat Index: -2°   Visibility: 10mi
Dew Point: -6°   Wind: 13mph
Humidity: 85%   Direction: 10°N
Pressure: 30.28"   Gusts: NA
Location:  49.13°N, 98.95°W
Report Text: K06D 261115Z AUTO 01011KT 10SM -SN FEW003 BKN041 OVC050 M19/M21 A3028 RMK AO2
Loading
Personal Weather Stations






























Interactive Weather Map New forecast layout! Learn more

10-Day Weather Forecast

Advertisements
Track Severe Weather on mobile